Time;durP1;ratioP1;P1;durP2;ratioP2;P2;SDS_P1;SDS_P2;PMS_P1;PMS_P2;Temp;Humidity;BMP_temperature;BMP_pressure;BME280_temperature;BME280_humidity;BME280_pressure;Samples;Min_cycle;Max_cycle;Signal;HPM_P1;HPM_P2
2021/10/25 00:00:02;;;;;;;25.83;12.95;;;;;;;9.54;80.21;101737.94;5044085;28;20074;-47
2021/10/25 00:02:27;;;;;;;25.27;13.40;;;;;;;9.54;80.22;101725.31;5043742;28;20111;-44
2021/10/25 00:04:52;;;;;;;27.42;12.63;;;;;;;9.53;79.93;101728.16;5049863;28;20033;-44
2021/10/25 00:07:18;;;;;;;26.52;12.82;;;;;;;9.61;80.11;101737.16;5043321;28;20531;-45
2021/10/25 00:09:43;;;;;;;25.85;13.93;;;;;;;9.64;79.56;101733.31;5045497;28;20524;-44
2021/10/25 00:12:09;;;;;;;26.08;13.38;;;;;;;9.66;79.88;101734.88;5033140;28;20388;-44
2021/10/25 00:14:34;;;;;;;23.58;13.13;;;;;;;9.68;80.03;101732.00;5031371;28;20026;-44
2021/10/25 00:16:59;;;;;;;32.67;14.02;;;;;;;9.64;80.19;101720.72;5031335;28;20071;-46
2021/10/25 00:19:25;;;;;;;28.73;13.30;;;;;;;9.68;80.13;101724.78;5050122;28;20110;-44
2021/10/25 00:21:51;;;;;;;25.65;13.75;;;;;;;9.70;80.60;101732.69;5051549;28;20063;-44
2021/10/25 00:24:17;;;;;;;29.60;14.07;;;;;;;9.70;80.18;101719.25;5050594;28;20480;-44
2021/10/25 00:26:43;;;;;;;25.08;14.05;;;;;;;9.74;80.09;101715.28;5043507;28;20036;-45
2021/10/25 00:29:08;;;;;;;25.08;14.05;;;;;;;9.69;80.04;101706.81;5048756;28;20022;-45
2021/10/25 00:31:34;;;;;;;24.98;14.13;;;;;;;9.70;80.45;101711.19;5038857;28;20016;-46
2021/10/25 00:33:59;;;;;;;28.85;14.80;;;;;;;9.71;80.57;101702.13;5053380;28;20037;-45
2021/10/25 00:36:24;;;;;;;26.45;15.23;;;;;;;9.67;80.12;101708.81;5052870;28;20095;-44
2021/10/25 00:38:50;;;;;;;28.23;15.40;;;;;;;9.68;80.71;101713.19;5047648;28;20029;-45
2021/10/25 00:41:15;;;;;;;30.08;14.60;;;;;;;9.70;80.49;101713.88;5035194;28;20057;-47
2021/10/25 00:43:41;;;;;;;26.30;15.55;;;;;;;9.66;80.41;101716.03;5047521;28;20049;-45
2021/10/25 00:46:07;;;;;;;30.75;14.85;;;;;;;9.66;80.32;101716.03;5046800;28;20033;-46
2021/10/25 00:48:33;;;;;;;25.45;14.73;;;;;;;9.68;80.57;101710.50;5045843;28;20037;-45
2021/10/25 00:50:59;;;;;;;23.77;14.68;;;;;;;9.69;80.27;101714.91;5052700;28;20044;-45
2021/10/25 00:53:24;;;;;;;27.48;14.48;;;;;;;9.72;80.00;101703.81;5042946;28;20044;-48
2021/10/25 00:55:50;;;;;;;26.00;15.13;;;;;;;9.67;80.49;101703.44;5034688;28;20049;-46
2021/10/25 00:58:16;;;;;;;27.58;14.52;;;;;;;9.72;80.16;101703.00;5046495;28;20119;-46
2021/10/25 01:00:41;;;;;;;34.38;15.23;;;;;;;9.70;80.57;101700.44;5039776;28;20169;-45
2021/10/25 01:03:07;;;;;;;19.35;12.85;;;;;;;9.72;80.12;101703.00;5037075;28;20041;-44
2021/10/25 01:05:32;;;;;;;35.92;13.88;;;;;;;9.73;80.26;101701.97;5035110;28;20025;-44
2021/10/25 01:08:01;;;;;;;27.17;14.10;;;;;;;9.71;80.43;101704.81;5035875;28;20056;-45
2021/10/25 01:10:26;;;;;;;28.33;14.10;;;;;;;9.68;80.21;101710.50;5034740;28;20104;-46
2021/10/25 01:12:52;;;;;;;28.48;14.18;;;;;;;9.67;80.55;101698.91;5034916;28;20108;-45
2021/10/25 01:15:19;;;;;;;23.55;13.10;;;;;;;9.70;80.53;101705.81;5045021;28;20031;-44
2021/10/25 01:17:44;;;;;;;22.80;13.38;;;;;;;9.67;80.35;101715.03;5045976;28;20480;-45
2021/10/25 01:20:10;;;;;;;23.33;14.10;;;;;;;9.59;80.53;101706.06;5037623;28;20116;-44
2021/10/25 01:22:35;;;;;;;28.70;14.70;;;;;;;9.54;80.57;101698.47;5045205;28;20029;-44
2021/10/25 01:25:01;;;;;;;24.73;14.15;;;;;;;9.58;80.52;101698.97;5033550;28;20427;-45
2021/10/25 01:27:26;;;;;;;28.27;14.55;;;;;;;9.58;81.22;101704.34;5039102;28;20025;-46
2021/10/25 01:29:52;;;;;;;26.73;14.82;;;;;;;9.59;80.61;101700.69;5052963;28;20033;-44
2021/10/25 01:32:17;;;;;;;23.73;14.00;;;;;;;9.60;81.13;101702.38;5050743;28;20041;-44
2021/10/25 01:34:42;;;;;;;25.15;15.30;;;;;;;9.56;81.11;101695.63;5051384;28;20086;-44
2021/10/25 01:37:09;;;;;;;27.38;14.38;;;;;;;9.54;80.95;101695.78;5052080;28;20361;-45
2021/10/25 01:39:35;;;;;;;22.95;13.85;;;;;;;9.59;81.02;101689.94;5043073;28;20103;-44
2021/10/25 01:42:00;;;;;;;28.40;13.68;;;;;;;9.59;81.41;101689.94;5038451;28;20481;-45
2021/10/25 01:44:26;;;;;;;28.33;14.35;;;;;;;9.62;80.67;101685.09;5056513;28;20128;-45
2021/10/25 01:46:51;;;;;;;27.85;14.98;;;;;;;9.68;80.88;101683.63;5052992;28;20035;-45
2021/10/25 01:49:16;;;;;;;26.40;13.60;;;;;;;9.66;80.97;101689.16;5043890;28;20052;-46
2021/10/25 01:51:42;;;;;;;25.90;13.70;;;;;;;9.64;81.27;101691.16;5051866;28;20036;-45
2021/10/25 01:54:08;;;;;;;26.98;14.40;;;;;;;9.59;81.13;101685.41;5048945;28;20391;-44
2021/10/25 01:56:36;;;;;;;25.17;13.95;;;;;;;9.60;81.45;101686.25;5050990;28;20036;-44
2021/10/25 01:59:03;;;;;;;30.10;15.18;;;;;;;9.63;81.12;101685.91;5041271;28;20502;-44
2021/10/25 02:01:28;;;;;;;26.30;13.82;;;;;;;9.66;81.38;101680.22;5050023;28;20037;-46
2021/10/25 02:03:53;;;;;;;27.55;14.15;;;;;;;9.67;81.25;101687.31;5038550;28;20037;-44
2021/10/25 02:06:19;;;;;;;32.17;15.18;;;;;;;9.70;81.03;101687.00;5034466;28;20033;-47
2021/10/25 02:08:45;;;;;;;27.50;13.82;;;;;;;9.64;81.44;101680.41;5039184;28;20399;-45
2021/10/25 02:11:10;;;;;;;25.20;14.07;;;;;;;9.67;81.64;101681.94;5049345;28;20083;-44
2021/10/25 02:13:36;;;;;;;30.20;14.98;;;;;;;9.68;81.48;101672.88;5036273;28;20155;-44
2021/10/25 02:16:01;;;;;;;22.75;13.25;;;;;;;9.71;81.19;101677.94;5053151;28;20020;-46
2021/10/25 02:18:27;;;;;;;31.98;14.40;;;;;;;9.69;81.30;101677.25;5044720;28;20500;-46
2021/10/25 02:20:52;;;;;;;29.95;13.70;;;;;;;9.69;81.64;101679.94;5052761;28;20029;-45
2021/10/25 02:23:17;;;;;;;29.65;14.45;;;;;;;9.73;81.68;101670.56;5041102;28;20033;-45
2021/10/25 02:25:45;;;;;;;27.95;14.05;;;;;;;9.72;81.99;101674.25;5038615;28;20044;-46
2021/10/25 02:28:10;;;;;;;28.38;13.70;;;;;;;9.74;81.86;101671.41;5040590;28;20087;-45
2021/10/25 02:30:36;;;;;;;23.85;13.88;;;;;;;9.72;82.33;101668.03;5048010;28;20025;-44
2021/10/25 02:33:01;;;;;;;23.88;13.60;;;;;;;9.66;83.10;101666.78;5034247;28;20124;-45
2021/10/25 02:35:29;;;;;;;24.63;14.80;;;;;;;9.64;83.55;101671.50;5041922;28;20496;-45
2021/10/25 02:37:56;;;;;;;28.55;16.60;;;;;;;9.58;84.77;101664.03;5032389;28;20040;-46
2021/10/25 02:40:26;;;;;;;35.87;18.00;;;;;;;9.57;85.27;101659.69;5039314;28;20113;-44
2021/10/25 02:42:52;;;;;;;29.52;15.82;;;;;;;9.63;85.40;101662.56;5033470;28;20366;-46
2021/10/25 02:45:18;;;;;;;31.73;15.18;;;;;;;9.59;85.42;101655.00;5032883;28;20506;-45
2021/10/25 02:47:43;;;;;;;31.60;15.63;;;;;;;9.60;85.70;101654.00;5034940;28;20120;-44
2021/10/25 02:50:10;;;;;;;29.75;16.40;;;;;;;9.57;85.77;101651.63;5051240;28;20036;-45
2021/10/25 02:52:35;;;;;;;32.17;16.10;;;;;;;9.55;85.77;101662.50;5053432;28;20029;-46
2021/10/25 02:55:00;;;;;;;31.23;16.50;;;;;;;9.52;85.96;101656.63;5041572;28;20503;-44
2021/10/25 02:57:26;;;;;;;32.75;15.80;;;;;;;9.61;85.89;101656.53;5037484;28;20543;-44
2021/10/25 02:59:51;;;;;;;33.38;16.60;;;;;;;9.61;85.82;101656.53;5042540;28;20054;-44
2021/10/25 03:02:16;;;;;;;28.88;16.65;;;;;;;9.66;86.29;101645.28;5051826;28;20059;-45
2021/10/25 03:04:42;;;;;;;30.58;16.83;;;;;;;9.68;86.40;101646.00;5041324;28;20029;-47
2021/10/25 03:07:07;;;;;;;30.15;16.95;;;;;;;9.71;86.51;101645.66;5044201;28;20036;-47
2021/10/25 03:09:32;;;;;;;29.85;17.48;;;;;;;9.70;86.59;101646.69;5044610;28;20112;-44
2021/10/25 03:11:58;;;;;;;39.05;19.02;;;;;;;9.69;87.27;101642.31;5042808;28;20067;-43
2021/10/25 03:14:23;;;;;;;37.53;19.20;;;;;;;9.72;86.77;101636.63;5046478;28;20075;-44
2021/10/25 03:16:49;;;;;;;36.50;17.55;;;;;;;9.79;86.59;101640.34;5032469;28;20570;-46
2021/10/25 03:19:14;;;;;;;28.67;15.48;;;;;;;9.82;86.57;101637.38;5034466;28;20025;-44
2021/10/25 03:21:40;;;;;;;32.38;17.02;;;;;;;9.83;86.32;101644.41;5032254;28;20120;-44
2021/10/25 03:24:05;;;;;;;33.70;17.95;;;;;;;9.82;87.00;101640.06;5036242;28;20106;-44
2021/10/25 03:26:30;;;;;;;35.13;17.48;;;;;;;9.76;87.40;101646.03;5051770;28;20116;-45
2021/10/25 03:28:56;;;;;;;31.08;17.83;;;;;;;9.79;87.29;101642.19;5045339;28;20067;-44
2021/10/25 03:31:22;;;;;;;39.13;18.52;;;;;;;9.80;87.51;101643.91;5036990;28;20021;-46
2021/10/25 03:33:48;;;;;;;42.72;19.95;;;;;;;9.80;88.27;101642.06;5038100;28;20503;-45
2021/10/25 03:36:16;;;;;;;34.20;18.33;;;;;;;9.76;88.74;101647.91;5048919;28;20087;-44
2021/10/25 03:38:42;;;;;;;42.58;21.40;;;;;;;9.66;89.66;101639.91;5048208;28;20037;-45
2021/10/25 03:41:14;;;;;;;50.42;21.65;;;;;;;9.66;90.49;101643.47;5052147;28;20539;-46
2021/10/25 03:43:45;;;;;;;38.78;21.35;;;;;;;9.65;90.74;101640.94;5050929;28;20051;-42
2021/10/25 03:48:52;;;;;;;43.78;24.67;;;;;;;9.59;91.14;101628.97;5043906;28;20044;-52
2021/10/25 03:51:18;;;;;;;46.05;24.65;;;;;;;9.58;92.18;101629.09;5051435;28;20037;-48
2021/10/25 03:59:18;;;;;;;51.47;27.05;;;;;;;9.53;92.69;101636.78;5047539;28;20095;-48
2021/10/25 04:28:48;;;;;;;72.03;36.10;;;;;;;9.68;93.87;101632.53;5037513;28;20025;-46
2021/10/25 04:31:13;;;;;;;67.90;36.75;;;;;;;9.69;93.58;101639.63;5045453;28;20456;-44
2021/10/25 04:33:39;;;;;;;79.82;37.83;;;;;;;9.67;93.76;101644.31;5036817;28;20108;-44
2021/10/25 04:36:04;;;;;;;80.75;39.97;;;;;;;9.72;93.96;101646.53;5039419;28;20106;-43
2021/10/25 04:38:30;;;;;;;87.35;43.60;;;;;;;9.73;93.96;101634.78;5039133;28;20384;-44
2021/10/25 04:40:55;;;;;;;83.20;40.63;;;;;;;9.76;93.87;101632.59;5051386;28;20031;-44
2021/10/25 04:43:20;;;;;;;74.45;39.25;;;;;;;9.76;93.95;101629.91;5044157;28;20029;-45
2021/10/25 04:45:46;;;;;;;75.70;40.00;;;;;;;9.76;94.03;101623.69;5037226;28;20516;-48
2021/10/25 04:48:12;;;;;;;82.28;42.92;;;;;;;9.75;94.37;101625.56;5051722;28;20431;-47
2021/10/25 04:50:37;;;;;;;85.55;45.65;;;;;;;9.73;94.42;101626.72;5038487;28;20088;-45
2021/10/25 04:53:03;;;;;;;88.70;45.90;;;;;;;9.72;94.51;101620.50;5045855;28;20072;-47
2021/10/25 04:55:29;;;;;;;90.55;44.67;;;;;;;9.75;94.53;101628.25;5040328;28;20029;-43
2021/10/25 04:57:54;;;;;;;92.32;46.13;;;;;;;9.77;94.39;101628.06;5038356;28;20033;-44
2021/10/25 05:00:20;;;;;;;99.53;45.38;;;;;;;9.74;94.94;101628.38;5038063;28;20036;-44
2021/10/25 05:02:45;;;;;;;96.75;48.13;;;;;;;9.74;94.79;101626.56;5041849;28;20072;-44
2021/10/25 05:05:10;;;;;;;95.25;47.60;;;;;;;9.78;94.98;101619.00;5037695;28;20033;-44
2021/10/25 05:07:36;;;;;;;95.25;47.25;;;;;;;9.79;95.01;101626.91;5047533;28;20024;-43
2021/10/25 05:10:03;;;;;;;97.13;48.30;;;;;;;9.83;95.18;101622.91;5035111;28;20033;-43
2021/10/25 05:12:32;;;;;;;95.10;48.13;;;;;;;9.86;95.04;101624.44;5036371;28;20031;-44
2021/10/25 05:14:58;;;;;;;95.72;47.50;;;;;;;9.85;95.21;101620.91;5048546;28;20025;-44
2021/10/25 05:17:23;;;;;;;92.97;47.30;;;;;;;9.86;95.08;101619.91;5035271;28;20341;-44
2021/10/25 05:19:49;;;;;;;103.38;50.95;;;;;;;9.83;94.90;101625.59;5037012;28;20764;-47
2021/10/25 05:22:14;;;;;;;104.15;49.50;;;;;;;9.84;95.49;101618.38;5041789;28;20030;-46
2021/10/25 05:24:42;;;;;;;100.32;48.20;;;;;;;9.83;95.40;101617.53;5045838;28;20446;-49
2021/10/25 05:27:09;;;;;;;81.20;42.78;;;;;;;9.84;95.38;101621.91;5034775;28;20425;-47
2021/10/25 05:29:35;;;;;;;81.85;41.72;;;;;;;9.89;95.82;101622.28;5034616;28;20406;-48
2021/10/25 05:32:01;;;;;;;90.50;44.67;;;;;;;9.89;95.80;101621.44;5047392;28;20074;-51
2021/10/25 05:34:26;;;;;;;84.72;44.47;;;;;;;9.88;95.77;101609.00;5047488;28;20028;-52
2021/10/25 05:36:51;;;;;;;95.45;47.53;;;;;;;9.91;95.83;101607.84;5044175;28;20040;-53
2021/10/25 05:39:17;;;;;;;95.53;49.00;;;;;;;9.94;96.15;101613.75;5035099;28;20022;-52
2021/10/25 05:41:44;;;;;;;96.97;47.80;;;;;;;9.93;95.79;101605.84;5042979;28;20043;-52
2021/10/25 05:44:10;;;;;;;91.90;46.95;;;;;;;9.93;96.15;101611.22;5043700;28;20053;-49
2021/10/25 05:46:35;;;;;;;93.32;47.13;;;;;;;9.94;95.88;101607.53;5055046;28;20028;-50
2021/10/25 05:49:01;;;;;;;92.70;46.90;;;;;;;9.90;96.03;101612.38;5055722;28;20028;-52
2021/10/25 05:51:26;;;;;;;84.35;44.97;;;;;;;9.93;96.19;101600.47;5048840;28;20033;-49
2021/10/25 05:53:52;;;;;;;94.50;47.47;;;;;;;9.89;95.99;101602.63;5036860;28;20021;-51
2021/10/25 05:56:17;;;;;;;94.22;44.88;;;;;;;9.88;96.10;101601.78;5035912;28;20033;-47
2021/10/25 05:58:43;;;;;;;93.95;47.92;;;;;;;9.87;96.28;101597.41;5033868;28;20072;-49
2021/10/25 06:01:14;;;;;;;89.88;47.08;;;;;;;9.86;96.26;101594.88;5034127;28;20033;-47
2021/10/25 06:03:42;;;;;;;95.57;47.67;;;;;;;9.85;96.41;101599.41;5036039;28;20056;-46
2021/10/25 06:06:07;;;;;;;;;;;;;;;9.85;96.31;101599.41;5052380;28;20021;-46
2021/10/25 06:08:32;;;;;;;101.70;48.42;;;;;;;9.85;96.30;101596.72;5045708;28;20409;-47
2021/10/25 06:10:58;;;;;;;107.05;50.55;;;;;;;9.84;96.47;101597.69;5048224;28;20531;-45
2021/10/25 06:16:04;;;;;;;101.80;48.88;;;;;;;9.84;96.17;101596.88;5047723;28;20114;-44
2021/10/25 06:18:29;;;;;;;104.88;49.25;;;;;;;9.84;96.19;101600.38;5036259;28;20467;-45
2021/10/25 06:20:55;;;;;;;97.30;47.67;;;;;;;9.82;96.31;101593.47;5050703;28;20079;-44
2021/10/25 06:23:20;;;;;;;95.82;46.97;;;;;;;9.79;96.14;101593.81;5053101;28;20021;-45
2021/10/25 06:25:50;;;;;;;99.30;49.88;;;;;;;9.76;95.92;101600.34;5052047;28;20090;-46
2021/10/25 06:28:16;;;;;;;90.75;47.28;;;;;;;9.79;96.10;101596.50;5038661;28;20034;-47
2021/10/25 06:30:41;;;;;;;87.22;44.05;;;;;;;9.76;96.36;101594.97;5047556;28;20036;-45
2021/10/25 06:33:08;;;;;;;98.40;45.85;;;;;;;9.77;95.89;101602.06;5055955;28;20083;-49
2021/10/25 06:35:33;;;;;;;88.90;44.65;;;;;;;9.75;96.27;101598.66;5052884;28;20021;-48
2021/10/25 06:38:12;;;;;;;85.32;44.58;;;;;;;9.77;96.03;101602.06;5051533;28;20033;-47
2021/10/25 06:40:38;;;;;;;79.05;40.60;;;;;;;9.76;95.96;101605.72;5051395;28;20069;-48
2021/10/25 06:43:04;;;;;;;82.78;42.13;;;;;;;9.75;96.04;101612.09;5042362;28;20025;-47
2021/10/25 06:45:29;;;;;;;82.65;43.13;;;;;;;9.75;96.18;101612.09;5050549;28;20059;-46
2021/10/25 06:47:55;;;;;;;83.88;42.90;;;;;;;9.78;96.36;101609.09;5049973;28;20106;-43
2021/10/25 06:50:26;;;;;;;85.97;44.47;;;;;;;9.80;95.98;101609.78;5049223;28;20044;-44
2021/10/25 06:53:04;;;;;;;84.00;44.17;;;;;;;9.76;95.99;101608.41;5049711;28;20033;-43
2021/10/25 06:55:29;;;;;;;86.47;43.45;;;;;;;9.76;95.96;101621.84;5048884;28;20021;-43
2021/10/25 06:57:55;;;;;;;90.03;43.83;;;;;;;9.77;96.04;101612.81;5052816;28;20048;-43
2021/10/25 07:00:21;;;;;;;84.28;43.78;;;;;;;9.78;96.07;101613.63;5046008;28;20129;-43
2021/10/25 07:02:47;;;;;;;75.97;40.75;;;;;;;9.81;96.07;101608.78;5043156;28;20171;-44
2021/10/25 07:05:13;;;;;;;69.28;39.05;;;;;;;9.79;95.96;101618.00;5052222;28;20059;-43
2021/10/25 07:07:38;;;;;;;73.82;37.72;;;;;;;9.78;95.85;101614.47;5051459;28;20128;-42
2021/10/25 07:10:06;;;;;;;70.10;37.40;;;;;;;9.81;95.74;101619.53;5052164;28;20029;-43
2021/10/25 07:12:31;;;;;;;70.95;37.78;;;;;;;9.82;95.55;101618.56;5049772;28;20035;-44
2021/10/25 07:14:58;;;;;;;70.82;37.55;;;;;;;9.84;95.81;101629.97;5052069;28;20109;-44
2021/10/25 08:10:40;;;;;;;63.63;34.20;;;;;;;10.15;95.33;101656.38;5047005;28;20071;-43
2021/10/25 08:13:12;;;;;;;60.95;32.67;;;;;;;10.19;95.50;101657.78;5046797;28;20032;-47
2021/10/25 08:15:42;;;;;;;52.75;29.75;;;;;;;10.19;95.27;101649.69;5049613;28;20025;-44
2021/10/25 08:18:23;;;;;;;56.83;32.28;;;;;;;10.22;95.18;101653.91;5044521;28;20033;-44
2021/10/25 08:20:49;;;;;;;56.33;30.35;;;;;;;10.27;95.08;101655.16;5044962;28;20112;-45
2021/10/25 08:23:14;;;;;;;58.95;31.40;;;;;;;10.27;94.79;101663.22;5047071;28;20376;-46
2021/10/25 08:25:39;;;;;;;57.40;30.27;;;;;;;10.24;95.04;101665.34;5042078;28;20055;-45
2021/10/25 08:28:05;;;;;;;58.72;32.50;;;;;;;10.25;94.99;101665.19;5037933;28;20041;-47
2021/10/25 08:30:30;;;;;;;60.25;33.25;;;;;;;10.24;95.07;101658.13;5042610;28;20144;-45
2021/10/25 08:35:32;;;;;;;69.25;35.45;;;;;;;10.36;95.05;101660.56;5041761;28;20515;-45
2021/10/25 08:40:42;;;;;;;78.00;37.47;;;;;;;10.39;94.28;101657.56;5049511;28;20055;-44
2021/10/25 08:43:08;;;;;;;76.03;38.13;;;;;;;10.39;94.65;101657.56;5044787;28;20025;-45
2021/10/25 08:45:34;;;;;;;77.05;38.72;;;;;;;10.37;94.76;101646.09;5048852;28;20415;-46
2021/10/25 08:48:01;;;;;;;75.15;39.30;;;;;;;10.38;94.85;101658.56;5049000;28;20037;-44
2021/10/25 08:50:30;;;;;;;87.23;41.97;;;;;;;10.36;94.87;101655.19;5055037;28;20404;-45
2021/10/25 08:52:56;;;;;;;87.13;43.22;;;;;;;10.37;95.10;101656.88;5053422;28;20028;-46
2021/10/25 08:55:22;;;;;;;86.43;42.00;;;;;;;10.38;95.13;101656.72;5037116;28;20113;-44
2021/10/25 08:57:49;;;;;;;84.78;43.03;;;;;;;10.45;94.99;101659.59;5050596;28;20116;-47
2021/10/25 09:00:17;;;;;;;98.10;43.80;;;;;;;10.41;95.14;101663.63;5054388;28;20025;-43
2021/10/25 09:02:43;;;;;;;;;;;;;;;10.43;95.29;101656.25;5054885;28;20279;-44
2021/10/25 09:05:11;;;;;;;87.57;41.05;;;;;;;10.51;94.96;101659.81;5053344;28;19938;-44
2021/10/25 09:07:55;;;;;;;94.60;43.28;;;;;;;10.47;94.99;101654.91;5052210;28;20079;-45
2021/10/25 09:10:24;;;;;;;87.72;42.05;;;;;;;10.44;95.05;101660.63;5054663;28;20025;-45
2021/10/25 09:13:04;;;;;;;92.57;43.85;;;;;;;10.50;94.90;101657.25;5054657;28;20029;-45
2021/10/25 09:15:32;;;;;;;96.05;44.30;;;;;;;10.46;95.05;101651.38;5054252;28;21417;-48
2021/10/25 09:18:05;;;;;;;94.57;43.50;;;;;;;10.49;95.35;101650.22;5050570;28;20051;-46
2021/10/25 09:20:30;;;;;;;96.85;45.70;;;;;;;10.52;95.23;101649.88;5053645;28;20048;-48
2021/10/25 09:23:09;;;;;;;98.30;46.42;;;;;;;10.56;95.01;101651.25;5053964;28;20031;-47
2021/10/25 09:25:36;;;;;;;93.22;45.42;;;;;;;10.54;95.14;101655.94;5051038;28;20044;-48
2021/10/25 09:28:08;;;;;;;103.15;46.03;;;;;;;10.58;95.28;101651.91;5052032;28;20429;-46
2021/10/25 09:30:39;;;;;;;103.13;49.80;;;;;;;10.55;95.24;101655.78;5053584;28;20045;-46
2021/10/25 09:33:07;;;;;;;105.25;47.17;;;;;;;10.55;94.61;101657.63;5053936;28;20033;-46
2021/10/25 09:35:45;;;;;;;99.18;47.15;;;;;;;10.58;95.11;101654.59;5053860;28;20384;-45
2021/10/25 09:38:22;;;;;;;;;;;;;;;10.52;95.01;101655.25;5054934;28;20127;-45
2021/10/25 09:46:04;;;;;;;106.30;49.13;;;;;;;10.60;95.47;101655.28;5052116;28;20519;-47
2021/10/25 09:51:13;;;;;;;104.43;48.20;;;;;;;10.65;94.73;101650.28;5054023;28;20031;-44
2021/10/25 09:53:44;;;;;;;111.65;48.78;;;;;;;10.65;94.67;101647.56;5053429;28;20017;-45
2021/10/25 09:56:11;;;;;;;111.88;47.58;;;;;;;10.64;94.84;101653.97;5036462;28;20032;-45
2021/10/25 09:58:44;;;;;;;93.95;45.20;;;;;;;10.70;94.69;101657.88;5053406;28;20036;-44
2021/10/25 10:01:11;;;;;;;101.07;45.78;;;;;;;10.71;94.73;101649.59;5052666;28;20051;-46
2021/10/25 10:03:36;;;;;;;96.75;43.75;;;;;;;10.72;94.50;101651.31;5053717;28;20102;-45
2021/10/25 10:06:02;;;;;;;101.38;46.88;;;;;;;10.72;94.35;101643.22;5053035;28;20065;-44
2021/10/25 10:08:27;;;;;;;110.95;46.17;;;;;;;10.73;94.65;101649.47;5053438;28;20029;-45
2021/10/25 10:10:56;;;;;;;103.07;46.55;;;;;;;10.77;94.48;101657.06;5052781;28;20036;-44
2021/10/25 10:13:26;;;;;;;98.18;44.13;;;;;;;10.82;94.68;101647.63;5051954;28;20029;-44
2021/10/25 10:15:54;;;;;;;108.55;47.28;;;;;;;10.72;94.65;101648.63;5051121;28;20090;-47
2021/10/25 10:18:20;;;;;;;;;;;;;;;10.75;94.74;101645.59;5053613;28;20096;-46
2021/10/25 10:20:58;;;;;;;105.57;44.60;;;;;;;10.77;94.78;101643.59;5051283;28;20220;-45
2021/10/25 10:23:24;;;;;;;111.45;45.70;;;;;;;10.77;94.64;101640.91;5052115;28;20059;-44
2021/10/25 10:25:58;;;;;;;116.43;48.78;;;;;;;10.81;94.51;101643.25;5052416;28;20025;-49
2021/10/25 10:28:44;;;;;;;105.05;46.40;;;;;;;10.83;94.63;101646.63;5053079;28;20033;-45
2021/10/25 10:31:14;;;;;;;115.95;47.55;;;;;;;10.83;94.43;101636.69;5049103;28;20026;-47
2021/10/25 10:33:42;;;;;;;118.97;48.58;;;;;;;10.84;94.69;101642.91;5043461;28;20032;-44
2021/10/25 10:36:18;;;;;;;113.57;48.65;;;;;;;10.83;94.58;101642.09;5047214;28;20022;-45
2021/10/25 10:38:49;;;;;;;124.28;48.10;;;;;;;10.93;94.32;101636.56;5045268;28;20041;-45
2021/10/25 10:41:17;;;;;;;111.65;48.90;;;;;;;11.01;94.51;101638.44;5044429;28;20021;-45
2021/10/25 10:43:56;;;;;;;121.88;46.70;;;;;;;10.95;94.00;101640.78;5052151;28;20118;-44
2021/10/25 10:46:23;;;;;;;119.15;47.33;;;;;;;10.97;93.98;101648.69;5051303;28;20306;-48
2021/10/25 10:48:57;;;;;;;119.20;47.17;;;;;;;10.97;94.05;101648.69;5042115;28;20025;-47
2021/10/25 10:51:28;;;;;;;127.22;49.17;;;;;;;10.95;94.10;101634.53;5050489;28;20483;-47
2021/10/25 10:54:03;;;;;;;117.38;48.83;;;;;;;10.97;94.16;101644.13;5050556;28;20027;-46
2021/10/25 10:56:33;;;;;;;120.25;48.00;;;;;;;10.99;94.41;101641.28;5042487;28;20120;-46
2021/10/25 11:01:30;;;;;;;115.70;49.90;;;;;;;10.98;94.12;101642.31;5050685;28;20044;-46
2021/10/25 11:03:59;;;;;;;116.20;48.70;;;;;;;11.02;94.03;101645.50;5049701;28;20388;-45
2021/10/25 11:06:32;;;;;;;116.40;47.58;;;;;;;11.01;93.90;101646.53;5050849;28;20025;-45
2021/10/25 11:08:57;;;;;;;113.90;47.80;;;;;;;11.06;93.90;101653.09;5049871;28;20063;-45
2021/10/25 11:11:23;;;;;;;114.68;50.38;;;;;;;10.99;93.40;101647.50;5050330;28;20082;-48
2021/10/25 11:13:56;;;;;;;109.97;47.83;;;;;;;11.08;93.50;101647.53;5051449;28;20391;-46
2021/10/25 11:16:28;;;;;;;112.93;46.75;;;;;;;11.07;93.33;101648.53;5049145;28;20472;-47
2021/10/25 11:18:56;;;;;;;111.70;46.92;;;;;;;11.13;93.45;101647.88;5049114;28;20032;-45
2021/10/25 11:21:31;;;;;;;104.82;45.03;;;;;;;11.08;92.93;101650.22;5043476;28;20035;-48
2021/10/25 11:23:59;;;;;;;98.60;46.30;;;;;;;11.10;92.81;101646.34;5045762;28;20068;-45
2021/10/25 11:26:30;;;;;;;94.82;43.38;;;;;;;11.15;92.84;101645.84;5048369;28;20574;-45
2021/10/25 11:29:07;;;;;;;100.72;45.35;;;;;;;11.27;92.89;101646.38;5051448;28;20029;-45
2021/10/25 11:31:36;;;;;;;95.38;43.13;;;;;;;11.24;92.52;101639.47;5045842;28;20427;-46
2021/10/25 11:34:06;;;;;;;100.88;45.10;;;;;;;11.31;92.26;101636.94;5041709;28;20468;-46
2021/10/25 11:36:34;;;;;;;97.57;44.72;;;;;;;11.38;92.60;101637.97;5047728;28;20029;-46
2021/10/25 11:39:02;;;;;;;97.10;44.65;;;;;;;11.36;92.15;101627.34;5050373;28;20745;-45
2021/10/25 11:41:27;;;;;;;;;;;;;;;11.38;92.34;101629.88;5038664;28;20021;-46
2021/10/25 11:43:53;;;;;;;101.93;45.42;;;;;;;11.30;92.11;101628.03;5047875;28;20259;-46
2021/10/25 11:46:20;;;;;;;119.65;47.03;;;;;;;11.35;92.44;101630.22;5048513;28;20022;-49
2021/10/25 11:48:58;;;;;;;115.22;46.55;;;;;;;11.34;92.36;101633.91;5048048;28;20479;-46
2021/10/25 11:51:24;;;;;;;110.18;46.17;;;;;;;11.40;92.49;101631.41;5043857;28;20051;-47
2021/10/25 11:53:56;;;;;;;108.47;46.67;;;;;;;11.37;92.31;101622.78;5047665;28;20033;-46
2021/10/25 11:56:22;;;;;;;106.80;46.92;;;;;;;11.33;92.06;101624.16;5036004;28;20056;-45
2021/10/25 11:58:48;;;;;;;115.13;49.45;;;;;;;11.26;92.44;101618.59;5051974;28;20067;-45
2021/10/25 12:01:14;;;;;;;112.45;46.33;;;;;;;11.29;92.61;101617.41;5046075;28;20033;-46
2021/10/25 12:03:40;;;;;;;115.75;47.80;;;;;;;11.24;92.60;101611.69;5043908;28;20057;-46
2021/10/25 12:06:17;;;;;;;107.10;46.13;;;;;;;11.24;92.59;101617.91;5040229;28;20075;-46
2021/10/25 12:09:06;;;;;;;99.05;45.17;;;;;;;11.28;92.83;101618.44;5043028;28;20492;-48
2021/10/25 12:11:53;;;;;;;101.20;44.75;;;;;;;11.28;92.66;101616.56;5049583;28;20033;-47
2021/10/25 12:14:25;;;;;;;101.88;45.22;;;;;;;11.38;92.28;101613.72;5034961;28;20480;-47
2021/10/25 12:16:51;;;;;;;99.43;43.70;;;;;;;11.40;92.20;101611.66;5036480;28;20053;-46
2021/10/25 12:19:17;;;;;;;105.97;45.38;;;;;;;11.32;91.90;101622.47;5035643;28;20039;-48
2021/10/25 12:21:42;;;;;;;100.05;44.38;;;;;;;11.27;92.35;101619.41;5035964;28;20026;-49
2021/10/25 12:24:10;;;;;;;106.75;45.35;;;;;;;11.19;92.63;101621.13;5047648;28;20029;-45
2021/10/25 12:26:36;;;;;;;97.68;44.92;;;;;;;11.20;92.79;101612.00;5018013;28;20074;-45
2021/10/25 12:29:18;;;;;;;109.72;46.63;;;;;;;11.20;92.75;101614.72;5035695;28;20108;-45
2021/10/25 12:31:45;;;;;;;108.45;45.90;;;;;;;11.24;92.97;101608.97;5047046;28;20498;-44
2021/10/25 12:34:11;;;;;;;102.70;44.58;;;;;;;11.24;92.87;101606.28;5040387;28;20539;-45
2021/10/25 12:36:40;;;;;;;99.68;44.78;;;;;;;11.24;92.70;101617.06;5046709;28;20116;-47
2021/10/25 12:39:08;;;;;;;98.13;43.25;;;;;;;11.24;92.73;101611.69;5037166;28;20516;-45
2021/10/25 12:41:43;;;;;;;93.18;42.80;;;;;;;11.24;92.63;101611.69;5038165;28;20108;-46
2021/10/25 12:44:09;;;;;;;95.22;40.75;;;;;;;11.33;92.58;101613.38;5035731;28;20408;-45
2021/10/25 12:46:35;;;;;;;91.40;43.17;;;;;;;11.36;92.34;101610.34;5038713;28;20030;-45
2021/10/25 12:49:01;;;;;;;98.53;43.33;;;;;;;11.31;92.15;101607.31;5035462;28;20472;-45
2021/10/25 12:51:37;;;;;;;96.97;44.08;;;;;;;11.32;92.22;101603.59;5046377;28;20032;-44
2021/10/25 12:54:11;;;;;;;101.10;43.13;;;;;;;11.37;92.32;101602.09;5038453;28;20032;-45
2021/10/25 12:56:37;;;;;;;80.97;39.22;;;;;;;11.37;91.71;101601.22;5035302;28;20382;-45
2021/10/25 12:59:04;;;;;;;93.60;43.33;;;;;;;11.46;91.72;101604.78;5036753;28;20025;-48
2021/10/25 13:01:29;;;;;;;82.43;40.50;;;;;;;11.46;91.64;101602.94;5046636;28;20025;-46